createdAt,value
2017-09-02T00:00:17.428Z,0
2017-09-02T00:01:18.807Z,0
2017-09-02T00:02:20.211Z,0
2017-09-02T00:03:21.584Z,0
2017-09-02T00:04:22.992Z,0
2017-09-02T00:05:24.359Z,0
2017-09-02T00:06:25.767Z,0
2017-09-02T00:07:27.144Z,0
2017-09-02T00:08:28.558Z,0
2017-09-02T00:09:29.925Z,0
2017-09-02T00:10:31.337Z,0
2017-09-02T00:11:32.717Z,0
2017-09-02T00:12:34.106Z,0
2017-09-02T00:13:35.473Z,0
2017-09-02T00:14:36.885Z,0
2017-09-02T00:15:38.258Z,0
2017-09-02T00:16:39.660Z,0
2017-09-02T00:17:41.038Z,0
2017-09-02T00:18:42.452Z,0
2017-09-02T00:19:43.820Z,0
2017-09-02T00:20:45.223Z,0
2017-09-02T00:21:46.597Z,0
2017-09-02T00:22:48.005Z,0
2017-09-02T00:23:49.377Z,0
2017-09-02T00:24:50.809Z,0
2017-09-02T00:25:52.192Z,0
2017-09-02T00:26:53.665Z,0
2017-09-02T00:27:55.040Z,0
2017-09-02T00:28:56.450Z,0
2017-09-02T00:29:57.822Z,0
2017-09-02T00:30:59.224Z,0
2017-09-02T00:32:00.598Z,0
2017-09-02T00:33:01.997Z,0
2017-09-02T00:34:03.377Z,0
2017-09-02T00:35:04.785Z,0
2017-09-02T00:36:06.159Z,0
2017-09-02T00:37:07.544Z,0
2017-09-02T00:38:08.928Z,0
2017-09-02T00:39:10.344Z,0
2017-09-02T00:40:11.715Z,0
2017-09-02T00:41:13.122Z,0
2017-09-02T00:42:14.494Z,0
2017-09-02T00:43:15.896Z,0
2017-09-02T00:44:17.282Z,0
2017-09-02T00:45:18.675Z,0
2017-09-02T00:46:20.063Z,0
2017-09-02T00:47:21.462Z,0
2017-09-02T00:48:22.838Z,0
2017-09-02T00:49:24.238Z,0
2017-09-02T00:50:25.615Z,0
2017-09-02T00:51:27.025Z,0
2017-09-02T00:52:28.394Z,0
2017-09-02T00:53:29.803Z,0
2017-09-02T00:54:31.258Z,0
2017-09-02T00:55:32.617Z,0
2017-09-02T00:56:34.023Z,0
2017-09-02T00:57:35.396Z,0
2017-09-02T00:58:36.803Z,0
2017-09-02T00:59:38.180Z,0
2017-09-02T01:00:39.585Z,0
2017-09-02T01:01:40.960Z,0
2017-09-02T01:02:42.366Z,0
2017-09-02T01:03:43.734Z,0
2017-09-02T01:04:45.141Z,0
2017-09-02T01:05:46.512Z,0
2017-09-02T01:06:47.930Z,0
2017-09-02T01:07:49.359Z,0
2017-09-02T01:08:50.832Z,0
2017-09-02T01:09:52.211Z,0
2017-09-02T01:10:53.593Z,0
2017-09-02T01:11:54.976Z,0
2017-09-02T01:12:56.470Z,0
2017-09-02T01:13:57.843Z,0
2017-09-02T01:14:59.270Z,0
2017-09-02T01:16:00.648Z,0
2017-09-02T01:17:02.134Z,0
2017-09-02T01:18:03.518Z,0
2017-09-02T01:19:05.009Z,0
2017-09-02T01:20:06.385Z,0
2017-09-02T01:21:07.788Z,0
2017-09-02T01:22:09.172Z,0
2017-09-02T01:23:10.567Z,0
2017-09-02T01:24:11.941Z,0
2017-09-02T01:25:13.381Z,0
2017-09-02T01:26:14.785Z,0
2017-09-02T01:27:16.237Z,0
2017-09-02T01:28:17.609Z,0
2017-09-02T01:29:19.008Z,0
2017-09-02T01:30:20.390Z,0
2017-09-02T01:31:21.836Z,0
2017-09-02T01:32:23.210Z,0
2017-09-02T01:33:24.697Z,0
2017-09-02T01:34:26.090Z,0
2017-09-02T01:35:27.556Z,0
2017-09-02T01:36:28.938Z,0
2017-09-02T01:37:30.338Z,0
2017-09-02T01:38:31.713Z,0
2017-09-02T01:39:33.139Z,0
2017-09-02T01:40:34.528Z,0
2017-09-02T01:41:35.992Z,0
2017-09-02T01:42:37.356Z,0
2017-09-02T01:43:38.773Z,0
2017-09-02T01:44:40.147Z,0
2017-09-02T01:45:41.557Z,0
2017-09-02T01:46:42.939Z,0
2017-09-02T01:47:44.330Z,0
2017-09-02T01:48:45.703Z,0
2017-09-02T01:49:47.112Z,0
2017-09-02T01:50:48.486Z,0
2017-09-02T01:51:49.891Z,0
2017-09-02T01:52:51.264Z,0
2017-09-02T01:53:52.687Z,0
2017-09-02T01:54:54.054Z,0
2017-09-02T01:55:55.450Z,0
2017-09-02T01:56:56.846Z,0
2017-09-02T01:57:58.332Z,0
2017-09-02T01:58:59.707Z,0
2017-09-02T02:00:01.111Z,0
2017-09-02T02:01:02.486Z,0
2017-09-02T02:02:03.891Z,0
2017-09-02T02:03:05.289Z,0
2017-09-02T02:04:06.680Z,0
2017-09-02T02:05:08.054Z,0
2017-09-02T02:06:09.459Z,0
2017-09-02T02:07:10.830Z,0
2017-09-02T02:08:12.232Z,0
2017-09-02T02:09:13.609Z,0
2017-09-02T02:10:15.011Z,0
2017-09-02T02:11:16.383Z,0
2017-09-02T02:12:17.797Z,0
2017-09-02T02:13:19.173Z,0
2017-09-02T02:14:20.573Z,0
2017-09-02T02:15:21.945Z,0
2017-09-02T02:16:23.352Z,0
2017-09-02T02:17:24.727Z,0
2017-09-02T02:18:26.132Z,0
2017-09-02T02:19:27.508Z,0
2017-09-02T02:20:28.910Z,0
2017-09-02T02:21:30.280Z,0
2017-09-02T02:22:31.688Z,0
2017-09-02T02:23:33.065Z,0
2017-09-02T02:24:34.471Z,0
2017-09-02T02:25:35.949Z,0
2017-09-02T02:26:37.343Z,0
2017-09-02T02:27:38.748Z,0
2017-09-02T02:28:40.232Z,0
2017-09-02T02:29:41.605Z,0
2017-09-02T02:30:43.016Z,0
2017-09-02T02:31:44.390Z,0
2017-09-02T02:32:45.789Z,0
2017-09-02T02:33:47.164Z,0
2017-09-02T02:34:48.568Z,0
2017-09-02T02:35:49.940Z,0
2017-09-02T02:36:51.348Z,0
2017-09-02T02:37:52.732Z,0
2017-09-02T02:38:54.131Z,0
2017-09-02T02:39:55.508Z,0
2017-09-02T02:40:56.911Z,0
2017-09-02T02:41:58.286Z,0
2017-09-02T02:42:59.693Z,0
2017-09-02T02:44:01.066Z,0
2017-09-02T02:45:02.486Z,0
2017-09-02T02:46:03.856Z,0
2017-09-02T02:47:05.247Z,0
2017-09-02T02:48:06.623Z,0
2017-09-02T02:49:08.028Z,0
2017-09-02T02:50:09.416Z,0
2017-09-02T02:51:10.808Z,0
2017-09-02T02:52:12.186Z,0
2017-09-02T02:53:13.591Z,0
2017-09-02T02:54:14.966Z,0
2017-09-02T02:55:16.385Z,0
2017-09-02T02:56:17.748Z,0
2017-09-02T02:57:19.153Z,0
2017-09-02T02:58:20.524Z,0
2017-09-02T02:59:21.935Z,0
2017-09-02T03:00:23.321Z,0
2017-09-02T03:01:24.713Z,0
2017-09-02T03:02:26.080Z,0
2017-09-02T03:03:27.485Z,0
2017-09-02T03:04:28.859Z,0
2017-09-02T03:05:30.264Z,0
2017-09-02T03:06:31.637Z,0
2017-09-02T03:07:33.045Z,0
2017-09-02T03:08:34.430Z,0
2017-09-02T03:09:35.825Z,0
2017-09-02T03:10:37.196Z,0
2017-09-02T03:11:38.614Z,0
2017-09-02T03:12:39.985Z,0
2017-09-02T03:13:41.385Z,0
2017-09-02T03:14:42.756Z,0
2017-09-02T03:15:44.161Z,0
2017-09-02T03:16:45.566Z,0
2017-09-02T03:17:47.063Z,0
2017-09-02T03:18:48.439Z,0
2017-09-02T03:19:49.823Z,0
2017-09-02T03:20:51.197Z,0
2017-09-02T03:21:52.603Z,0
2017-09-02T03:22:53.983Z,0
2017-09-02T03:23:55.383Z,0
2017-09-02T03:24:56.758Z,0
2017-09-02T03:25:58.175Z,0
2017-09-02T03:26:59.537Z,0
2017-09-02T03:28:00.952Z,0
2017-09-02T03:29:02.358Z,0
2017-09-02T03:30:04.747Z,0
2017-09-02T03:31:06.121Z,0
2017-09-02T03:32:07.525Z,0
2017-09-02T03:33:08.901Z,0
2017-09-02T03:34:10.305Z,0
2017-09-02T03:35:11.682Z,0
2017-09-02T03:36:13.086Z,0
2017-09-02T03:37:14.464Z,0
2017-09-02T03:38:15.885Z,0
2017-09-02T03:39:17.255Z,0
2017-09-02T03:40:18.645Z,0
2017-09-02T03:41:20.021Z,0
2017-09-02T03:42:21.429Z,0
2017-09-02T03:43:22.802Z,0
2017-09-02T03:44:24.211Z,0
2017-09-02T03:45:25.590Z,0
2017-09-02T03:46:27.006Z,0
2017-09-02T03:47:28.377Z,0
2017-09-02T03:48:29.766Z,0
2017-09-02T03:49:31.133Z,0
2017-09-02T03:50:32.545Z,0
2017-09-02T03:51:33.918Z,0
2017-09-02T03:52:35.323Z,0
2017-09-02T03:53:36.695Z,0
2017-09-02T03:54:38.100Z,0
2017-09-02T03:55:39.485Z,0
2017-09-02T03:56:40.882Z,0
2017-09-02T03:57:42.264Z,0
2017-09-02T03:58:43.661Z,0
2017-09-02T03:59:45.038Z,0
2017-09-02T04:00:46.446Z,0
2017-09-02T04:01:47.814Z,0
2017-09-02T04:02:49.225Z,0
2017-09-02T04:03:50.597Z,0
2017-09-02T04:04:52.002Z,0
2017-09-02T04:05:53.373Z,0
2017-09-02T04:06:54.780Z,0
2017-09-02T04:07:56.146Z,0
2017-09-02T04:08:57.565Z,0
2017-09-02T04:09:58.964Z,0
2017-09-02T04:11:00.443Z,0
2017-09-02T04:12:01.820Z,0
2017-09-02T04:13:03.220Z,0
2017-09-02T04:14:04.601Z,0
2017-09-02T04:15:06.000Z,0
2017-09-02T04:16:07.371Z,4
2017-09-02T04:17:08.784Z,4
2017-09-02T04:18:10.155Z,0
2017-09-02T04:19:11.562Z,4
2017-09-02T04:20:12.934Z,8
2017-09-02T04:21:14.341Z,8
2017-09-02T04:22:15.726Z,8
2017-09-02T04:23:17.161Z,8
2017-09-02T04:24:18.512Z,8
2017-09-02T04:25:19.902Z,12
2017-09-02T04:26:21.307Z,16
2017-09-02T04:27:22.799Z,20
2017-09-02T04:28:24.169Z,28
2017-09-02T04:29:25.564Z,32
2017-09-02T04:30:26.935Z,36
2017-09-02T04:31:28.341Z,44
2017-09-02T04:32:29.720Z,52
2017-09-02T04:33:31.121Z,64
2017-09-02T04:34:32.493Z,72
2017-09-02T04:35:33.900Z,88
2017-09-02T04:36:35.279Z,96
2017-09-02T04:37:36.728Z,108
2017-09-02T04:38:38.098Z,124
2017-09-02T04:39:39.562Z,140
2017-09-02T04:40:40.954Z,152
2017-09-02T04:41:42.342Z,160
2017-09-02T04:42:43.771Z,168
2017-09-02T04:43:45.233Z,184
2017-09-02T04:44:46.601Z,196
2017-09-02T04:45:48.013Z,212
2017-09-02T04:46:49.388Z,232
2017-09-02T04:47:50.790Z,256
2017-09-02T04:48:52.168Z,280
2017-09-02T04:49:53.567Z,312
2017-09-02T04:50:54.945Z,348
2017-09-02T04:51:56.352Z,392
2017-09-02T04:52:57.737Z,436
2017-09-02T04:53:59.129Z,480
2017-09-02T04:55:00.525Z,528
2017-09-02T04:56:01.998Z,580
2017-09-02T04:57:03.380Z,628
2017-09-02T04:58:04.788Z,680
2017-09-02T04:59:06.164Z,740
2017-09-02T05:00:07.566Z,800
2017-09-02T05:01:08.940Z,864
2017-09-02T05:02:10.347Z,928
2017-09-02T05:03:11.744Z,1000
2017-09-02T05:04:13.238Z,1076
2017-09-02T05:05:14.614Z,1148
2017-09-02T05:06:16.006Z,1224
2017-09-02T05:07:17.381Z,1300
2017-09-02T05:08:18.788Z,1376
2017-09-02T05:09:20.171Z,1456
2017-09-02T05:10:21.566Z,1544
2017-09-02T05:11:22.972Z,1628
2017-09-02T05:12:24.454Z,1712
2017-09-02T05:13:25.841Z,1800
2017-09-02T05:14:27.235Z,1900
2017-09-02T05:15:28.601Z,1980
2017-09-02T05:16:30.005Z,2052
2017-09-02T05:17:31.385Z,2108
2017-09-02T05:18:32.789Z,2120
2017-09-02T05:19:34.243Z,2092
2017-09-02T05:20:35.669Z,2044
2017-09-02T05:21:37.042Z,2020
2017-09-02T05:22:38.492Z,2088
2017-09-02T05:23:39.874Z,2224
2017-09-02T05:24:41.361Z,2416
2017-09-02T05:25:42.731Z,2648
2017-09-02T05:26:44.212Z,2884
2017-09-02T05:27:45.588Z,3072
2017-09-02T05:28:47.039Z,3232
2017-09-02T05:29:48.571Z,3368
2017-09-02T05:30:50.084Z,3480
2017-09-02T05:31:51.461Z,3564
2017-09-02T05:32:52.895Z,3648
2017-09-02T05:33:54.292Z,3748
2017-09-02T05:34:55.803Z,3832
2017-09-02T05:35:57.193Z,3916
2017-09-02T05:36:58.624Z,3992
2017-09-02T05:38:00.004Z,4052
2017-09-02T05:39:01.468Z,4120
2017-09-02T05:40:02.846Z,4180
2017-09-02T05:41:04.325Z,4236
2017-09-02T05:42:05.810Z,4296
2017-09-02T05:43:07.268Z,4360
2017-09-02T05:44:08.680Z,4436
2017-09-02T05:45:10.199Z,4532
2017-09-02T05:46:11.583Z,4664
2017-09-02T05:47:13.034Z,4832
2017-09-02T05:48:14.424Z,5032
2017-09-02T05:49:15.918Z,5284
2017-09-02T05:50:17.299Z,5540
2017-09-02T05:51:18.703Z,5772
2017-09-02T05:52:20.433Z,5948
2017-09-02T05:53:21.911Z,6156
2017-09-02T05:54:23.309Z,6324
2017-09-02T05:55:24.845Z,6412
2017-09-02T05:56:26.782Z,6604
2017-09-02T05:57:28.159Z,6596
2017-09-02T05:58:29.535Z,6820
2017-09-02T05:59:30.941Z,6900
2017-09-02T06:00:32.321Z,6856
2017-09-02T06:01:33.847Z,6904
2017-09-02T06:02:35.221Z,6936
2017-09-02T06:03:36.719Z,6932
2017-09-02T06:04:38.094Z,7084
2017-09-02T06:05:39.502Z,7244
2017-09-02T06:06:40.878Z,7352
2017-09-02T06:07:42.462Z,7464
2017-09-02T06:08:43.839Z,7612
2017-09-02T06:09:45.255Z,8724
2017-09-02T06:10:46.633Z,11296
2017-09-02T06:11:48.149Z,12440
2017-09-02T06:12:49.531Z,12948
2017-09-02T06:13:51.026Z,14156
2017-09-02T06:14:52.407Z,14668
2017-09-02T06:15:53.910Z,14748
2017-09-02T06:16:55.331Z,14936
2017-09-02T06:17:56.821Z,15424
2017-09-02T06:18:58.237Z,15680
2017-09-02T06:19:59.693Z,15616
2017-09-02T06:21:01.087Z,16640
2017-09-02T06:22:02.546Z,17984
2017-09-02T06:23:03.927Z,18752
2017-09-02T06:24:05.336Z,18688
2017-09-02T06:25:06.742Z,18560
2017-09-02T06:26:08.208Z,18592
2017-09-02T06:27:09.578Z,18816
2017-09-02T06:28:10.984Z,19616
2017-09-02T06:29:12.362Z,20640
2017-09-02T06:30:13.765Z,19424
2017-09-02T06:31:15.185Z,18272
2017-09-02T06:32:16.565Z,18976
2017-09-02T06:33:17.984Z,20352
2017-09-02T06:34:19.521Z,21280
2017-09-02T06:35:20.901Z,21280
2017-09-02T06:36:22.307Z,20288
2017-09-02T06:37:23.687Z,19488
2017-09-02T06:38:25.104Z,19808
2017-09-02T06:39:26.485Z,20000
2017-09-02T06:40:27.966Z,20992
2017-09-02T06:41:29.348Z,22528
2017-09-02T06:42:30.748Z,22880
2017-09-02T06:43:32.249Z,22144
2017-09-02T06:44:33.803Z,20640
2017-09-02T06:45:35.171Z,21120
2017-09-02T06:46:36.611Z,23488
2017-09-02T06:47:37.987Z,23712
2017-09-02T06:48:39.396Z,22496
2017-09-02T06:49:40.777Z,22016
2017-09-02T06:50:42.173Z,22144
2017-09-02T06:51:43.564Z,21184
2017-09-02T06:52:45.052Z,20864
2017-09-02T06:53:46.434Z,22144
2017-09-02T06:54:48.831Z,23200
2017-09-02T06:55:50.210Z,24448
2017-09-02T06:56:51.635Z,24448
2017-09-02T06:57:53.130Z,23264
2017-09-02T06:58:55.213Z,23648
2017-09-02T06:59:56.580Z,25408
2017-09-02T07:00:58.057Z,26016
2017-09-02T07:01:59.436Z,25248
2017-09-02T07:03:00.924Z,23936
2017-09-02T07:04:02.299Z,24416
2017-09-02T07:05:03.815Z,25184
2017-09-02T07:06:05.192Z,25696
2017-09-02T07:07:06.660Z,25792
2017-09-02T07:08:08.038Z,26816
2017-09-02T07:09:09.442Z,28160
2017-09-02T07:10:10.822Z,28032
2017-09-02T07:11:12.731Z,27744
2017-09-02T07:12:14.211Z,27328
2017-09-02T07:13:15.618Z,27904
2017-09-02T07:14:17.024Z,25600
2017-09-02T07:15:18.497Z,21408
2017-09-02T07:16:19.879Z,17332
2017-09-02T07:17:21.335Z,16840
2017-09-02T07:18:22.716Z,17576
2017-09-02T07:19:24.169Z,20384
2017-09-02T07:20:25.586Z,17764
2017-09-02T07:21:27.055Z,17200
2017-09-02T07:22:28.441Z,16820
2017-09-02T07:23:29.926Z,17744
2017-09-02T07:24:31.303Z,18464
2017-09-02T07:25:32.702Z,20256
2017-09-02T07:26:34.082Z,24416
2017-09-02T07:27:35.554Z,22048
2017-09-02T07:28:36.938Z,26784
2017-09-02T07:29:38.379Z,25888
2017-09-02T07:30:39.761Z,27936
2017-09-02T07:31:41.263Z,36480
2017-09-02T07:32:42.652Z,38912
2017-09-02T07:33:44.129Z,33376
2017-09-02T07:34:45.528Z,26624
2017-09-02T07:35:47.010Z,27392
2017-09-02T07:36:49.138Z,25984
2017-09-02T07:37:50.663Z,26048
2017-09-02T07:38:52.202Z,25088
2017-09-02T07:39:53.587Z,24576
2017-09-02T07:40:54.979Z,24672
2017-09-02T07:41:56.368Z,25440
2017-09-02T07:42:57.797Z,25664
2017-09-02T07:43:59.176Z,34848
2017-09-02T07:45:00.553Z,30592
2017-09-02T07:46:01.939Z,26368
2017-09-02T07:47:03.323Z,23424
2017-09-02T07:48:04.712Z,22464
2017-09-02T07:49:06.123Z,22816
2017-09-02T07:50:07.511Z,30304
2017-09-02T07:51:08.888Z,23776
2017-09-02T07:52:10.523Z,35680
2017-09-02T07:53:11.903Z,34464
2017-09-02T07:54:13.411Z,28576
2017-09-02T07:55:14.837Z,25408
2017-09-02T07:56:16.246Z,24032
2017-09-02T07:57:17.628Z,26880
2017-09-02T07:58:19.009Z,27616
2017-09-02T07:59:20.393Z,30976
2017-09-02T08:00:21.785Z,28160
2017-09-02T08:01:23.186Z,23648
2017-09-02T08:02:24.574Z,23424
2017-09-02T08:03:26.024Z,25536
2017-09-02T08:04:27.421Z,30080
2017-09-02T08:05:28.795Z,30240
2017-09-02T08:06:30.267Z,30400
2017-09-02T08:07:31.662Z,30624
2017-09-02T08:08:33.054Z,30368
2017-09-02T08:09:34.437Z,24416
2017-09-02T08:10:35.822Z,20992
2017-09-02T08:11:37.210Z,22784
2017-09-02T08:12:38.618Z,23872
2017-09-02T08:13:40.003Z,20928
2017-09-02T08:14:41.399Z,20160
2017-09-02T08:15:42.780Z,20800
2017-09-02T08:16:44.167Z,22912
2017-09-02T08:17:45.569Z,25280
2017-09-02T08:18:46.985Z,28576
2017-09-02T08:19:48.357Z,33504
2017-09-02T08:20:49.773Z,33664
2017-09-02T08:21:51.155Z,33632
2017-09-02T08:22:52.542Z,33440
2017-09-02T08:23:53.931Z,33600
2017-09-02T08:24:55.325Z,30144
2017-09-02T08:25:56.766Z,27712
2017-09-02T08:26:58.155Z,28736
2017-09-02T08:27:59.554Z,40384
2017-09-02T08:29:00.944Z,52576
2017-09-02T08:30:02.328Z,60576
2017-09-02T08:31:03.736Z,64544
2017-09-02T08:32:05.120Z,72800
2017-09-02T08:33:06.513Z,71904
2017-09-02T08:34:07.895Z,70336
2017-09-02T08:35:09.283Z,63456
2017-09-02T08:36:10.674Z,60288
2017-09-02T08:37:12.068Z,65920
2017-09-02T08:38:13.457Z,63232
2017-09-02T08:39:14.912Z,58528
2017-09-02T08:40:16.320Z,47808
2017-09-02T08:41:17.807Z,47520
2017-09-02T08:42:19.227Z,65504
2017-09-02T08:43:20.682Z,70816
2017-09-02T08:44:22.068Z,60704
2017-09-02T08:45:23.459Z,63360
2017-09-02T08:46:24.880Z,60192
2017-09-02T08:47:26.341Z,76960
2017-09-02T08:48:27.766Z,80864
2017-09-02T08:49:29.226Z,81920
2017-09-02T08:50:30.611Z,86400
2017-09-02T08:51:32.107Z,90528
2017-09-02T08:52:33.515Z,83488
2017-09-02T08:53:35.017Z,132864
2017-09-02T08:54:36.493Z,227712
2017-09-02T08:55:37.981Z,187232
2017-09-02T08:56:39.377Z,236448
2017-09-02T08:57:41.097Z,182880
2017-09-02T08:58:42.499Z,85856
2017-09-02T08:59:43.940Z,52800
2017-09-02T09:00:45.328Z,60352
2017-09-02T09:01:46.831Z,48864
2017-09-02T09:02:48.215Z,73728
2017-09-02T09:03:49.796Z,109216
2017-09-02T09:04:51.208Z,102080
2017-09-02T09:05:52.732Z,90720
2017-09-02T09:06:54.172Z,50176
2017-09-02T09:07:55.608Z,48192
2017-09-02T09:08:57.015Z,88832
2017-09-02T09:09:58.451Z,74144
2017-09-02T09:11:00.030Z,42336
2017-09-02T09:12:01.475Z,139136
2017-09-02T09:13:02.871Z,140480
2017-09-02T09:14:04.328Z,120064
2017-09-02T09:15:05.741Z,115360
2017-09-02T09:16:07.261Z,50176
2017-09-02T09:17:08.645Z,52192
2017-09-02T09:18:10.086Z,83744
2017-09-02T09:19:11.469Z,71584
2017-09-02T09:20:12.859Z,124352
2017-09-02T09:21:14.276Z,61728
2017-09-02T09:22:15.747Z,81184
2017-09-02T09:23:17.132Z,97568
2017-09-02T09:24:18.630Z,100128
2017-09-02T09:25:20.010Z,31552
2017-09-02T09:26:21.521Z,23424
2017-09-02T09:27:22.994Z,132544
2017-09-02T09:28:24.704Z,135264
2017-09-02T09:29:26.151Z,131072
2017-09-02T09:30:27.580Z,130656
2017-09-02T09:31:29.030Z,116832
2017-09-02T09:32:30.477Z,121120
2017-09-02T09:33:31.861Z,120736
2017-09-02T09:34:33.451Z,93536
2017-09-02T09:35:34.954Z,176192
2017-09-02T09:36:36.436Z,108224
2017-09-02T09:37:37.958Z,197376
2017-09-02T09:38:39.418Z,262140
2017-09-02T09:39:40.803Z,175648
2017-09-02T09:40:42.314Z,150976
2017-09-02T09:41:43.697Z,115552
2017-09-02T09:42:45.181Z,104320
2017-09-02T09:43:46.583Z,119136
2017-09-02T09:44:48.087Z,110624
2017-09-02T09:45:49.466Z,88704
2017-09-02T09:46:50.948Z,107264
2017-09-02T09:47:52.329Z,115136
2017-09-02T09:48:53.993Z,117600
2017-09-02T09:49:55.435Z,95872
2017-09-02T09:50:56.912Z,97728
2017-09-02T09:51:58.300Z,88928
2017-09-02T09:52:59.795Z,82272
2017-09-02T09:54:01.184Z,79264
2017-09-02T09:55:02.711Z,60352
2017-09-02T09:56:04.098Z,55712
2017-09-02T09:57:05.557Z,57760
2017-09-02T09:58:07.019Z,49952
2017-09-02T09:59:08.441Z,61216
2017-09-02T10:00:09.876Z,56000
2017-09-02T10:01:11.327Z,38048
2017-09-02T10:02:12.879Z,57120
2017-09-02T10:03:14.309Z,55968
2017-09-02T10:04:15.758Z,55008
2017-09-02T10:05:17.199Z,54368
2017-09-02T10:06:18.589Z,53536
2017-09-02T10:07:20.088Z,51040
2017-09-02T10:08:21.474Z,53120
2017-09-02T10:09:22.983Z,54112
2017-09-02T10:10:24.339Z,54432
2017-09-02T10:11:25.917Z,57472
2017-09-02T10:12:27.373Z,58016
2017-09-02T10:13:28.816Z,57920
2017-09-02T10:14:30.203Z,57408
2017-09-02T10:15:31.734Z,58400
2017-09-02T10:16:33.130Z,58496
2017-09-02T10:17:34.754Z,58304
2017-09-02T10:18:36.182Z,21664
2017-09-02T10:19:37.682Z,21216
2017-09-02T10:20:39.103Z,55776
2017-09-02T10:21:40.554Z,58720
2017-09-02T10:22:41.935Z,57344
2017-09-02T10:23:43.428Z,56416
2017-09-02T10:24:44.838Z,57792
2017-09-02T10:25:46.444Z,56960
2017-09-02T10:26:47.878Z,59680
2017-09-02T10:27:49.301Z,59648
2017-09-02T10:28:51.113Z,59744
2017-09-02T10:29:52.593Z,60192
2017-09-02T10:30:53.994Z,63360
2017-09-02T10:31:55.473Z,65120
2017-09-02T10:32:56.862Z,68192
2017-09-02T10:33:58.369Z,70240
2017-09-02T10:34:59.756Z,77888
2017-09-02T10:36:01.240Z,78464
2017-09-02T10:37:02.627Z,83744
2017-09-02T10:38:04.120Z,83072
2017-09-02T10:39:06.035Z,94336
2017-09-02T10:40:07.917Z,101120
2017-09-02T10:41:09.332Z,93920
2017-09-02T10:42:10.812Z,86336
2017-09-02T10:43:12.201Z,83744
2017-09-02T10:44:13.691Z,49984
2017-09-02T10:45:15.137Z,34016
2017-09-02T10:46:16.580Z,25600
2017-09-02T10:47:17.966Z,22880
2017-09-02T10:48:19.503Z,25568
2017-09-02T10:49:20.884Z,67008
2017-09-02T10:50:22.412Z,72960
2017-09-02T10:51:23.773Z,76416
2017-09-02T10:52:25.221Z,78496
2017-09-02T10:53:26.608Z,79744
2017-09-02T10:54:28.108Z,82464
2017-09-02T10:55:29.497Z,83808
2017-09-02T10:56:30.975Z,83168
2017-09-02T10:57:32.390Z,81088
2017-09-02T10:58:33.930Z,88448
2017-09-02T10:59:35.322Z,89472
2017-09-02T11:00:36.743Z,88704
2017-09-02T11:01:38.134Z,90432
2017-09-02T11:02:39.627Z,92864
2017-09-02T11:03:41.049Z,90560
2017-09-02T11:04:42.518Z,23968
2017-09-02T11:05:44.000Z,21440
2017-09-02T11:06:45.529Z,20480
2017-09-02T11:07:46.916Z,19808
2017-09-02T11:08:48.502Z,20288
2017-09-02T11:09:50.001Z,21216
2017-09-02T11:10:51.460Z,24736
2017-09-02T11:11:52.870Z,44000
2017-09-02T11:12:54.342Z,44000
2017-09-02T11:13:55.737Z,38624
2017-09-02T11:14:57.128Z,42176
2017-09-02T11:15:58.617Z,43488
2017-09-02T11:17:00.016Z,58240
2017-09-02T11:18:02.467Z,45824
2017-09-02T11:19:03.864Z,47168
2017-09-02T11:20:05.358Z,53920
2017-09-02T11:21:06.746Z,47488
2017-09-02T11:22:08.255Z,46240
2017-09-02T11:23:09.646Z,47008
2017-09-02T11:24:11.123Z,65632
2017-09-02T11:25:12.505Z,69984
2017-09-02T11:26:14.019Z,61024
2017-09-02T11:27:15.399Z,56992
2017-09-02T11:28:16.896Z,79040
2017-09-02T11:29:18.313Z,58208
2017-09-02T11:30:19.767Z,62432
2017-09-02T11:31:21.189Z,66560
2017-09-02T11:32:22.648Z,78432
2017-09-02T11:33:24.051Z,71648
2017-09-02T11:34:25.540Z,72064
2017-09-02T11:35:27.004Z,32896
2017-09-02T11:36:28.419Z,40960
2017-09-02T11:37:29.792Z,25728
2017-09-02T11:38:31.289Z,26144
2017-09-02T11:39:32.692Z,42432
2017-09-02T11:40:34.218Z,29344
2017-09-02T11:41:35.699Z,24960
2017-09-02T11:42:37.187Z,26432
2017-09-02T11:43:38.615Z,81216
2017-09-02T11:44:40.059Z,78112
2017-09-02T11:45:41.445Z,75648
2017-09-02T11:46:42.922Z,77632
2017-09-02T11:47:44.330Z,71072
2017-09-02T11:48:45.845Z,46784
2017-09-02T11:49:47.221Z,83360
2017-09-02T11:50:48.889Z,85088
2017-09-02T11:51:50.282Z,69152
2017-09-02T11:52:51.776Z,75552
2017-09-02T11:53:53.165Z,80352
2017-09-02T11:54:54.729Z,84992
2017-09-02T11:55:56.191Z,83872
2017-09-02T11:56:57.636Z,79616
2017-09-02T11:57:59.145Z,84000
2017-09-02T11:59:00.695Z,87200
2017-09-02T12:00:02.089Z,90240
2017-09-02T12:01:03.623Z,89984
2017-09-02T12:02:05.008Z,94368
2017-09-02T12:03:06.729Z,85696
2017-09-02T12:04:08.090Z,78688
2017-09-02T12:05:09.573Z,74688
2017-09-02T12:06:10.959Z,72032
2017-09-02T12:07:12.454Z,72352
2017-09-02T12:08:13.937Z,73600
2017-09-02T12:09:15.486Z,53408
2017-09-02T12:10:17.030Z,83136
2017-09-02T12:11:18.594Z,86816
2017-09-02T12:12:19.980Z,86528
2017-09-02T12:13:21.434Z,82816
2017-09-02T12:14:22.898Z,78208
2017-09-02T12:15:24.393Z,75264
2017-09-02T12:16:25.779Z,74720
2017-09-02T12:17:27.281Z,76992
2017-09-02T12:18:28.668Z,77344
2017-09-02T12:19:30.157Z,76992
2017-09-02T12:20:31.547Z,76672
2017-09-02T12:21:33.042Z,74368
2017-09-02T12:22:34.427Z,72576
2017-09-02T12:23:35.922Z,65376
2017-09-02T12:24:37.318Z,25280
2017-09-02T12:25:38.805Z,23008
2017-09-02T12:26:40.188Z,22624
2017-09-02T12:27:41.689Z,22336
2017-09-02T12:28:43.083Z,23424
2017-09-02T12:29:44.568Z,24512
2017-09-02T12:30:46.031Z,25216
2017-09-02T12:31:47.449Z,26080
2017-09-02T12:32:48.834Z,26560
2017-09-02T12:33:50.332Z,27232
2017-09-02T12:34:51.717Z,30432
2017-09-02T12:35:53.228Z,56896
2017-09-02T12:36:54.619Z,82464
2017-09-02T12:37:56.094Z,85056
2017-09-02T12:38:57.474Z,91584
2017-09-02T12:39:58.976Z,99072
2017-09-02T12:41:00.365Z,113824
2017-09-02T12:42:01.861Z,117984
2017-09-02T12:43:03.248Z,126048
2017-09-02T12:44:04.742Z,121504
2017-09-02T12:45:06.147Z,74784
2017-09-02T12:46:07.624Z,103648
2017-09-02T12:47:09.009Z,21888
2017-09-02T12:48:10.506Z,21856
2017-09-02T12:49:11.893Z,22944
2017-09-02T12:50:13.393Z,24064
2017-09-02T12:51:14.782Z,23264
2017-09-02T12:52:16.277Z,23168
2017-09-02T12:53:17.667Z,22080
2017-09-02T12:54:19.157Z,21152
2017-09-02T12:55:20.556Z,23392
2017-09-02T12:56:22.955Z,67392
2017-09-02T12:57:24.341Z,65344
2017-09-02T12:58:26.013Z,64256
2017-09-02T12:59:27.395Z,62176
2017-09-02T13:00:28.817Z,62752
2017-09-02T13:01:30.205Z,62784
2017-09-02T13:02:31.717Z,63648
2017-09-02T13:03:33.102Z,65632
2017-09-02T13:04:34.590Z,69408
2017-09-02T13:05:35.983Z,71200
2017-09-02T13:06:37.867Z,72704
2017-09-02T13:07:39.256Z,47232
2017-09-02T13:08:40.666Z,57824
2017-09-02T13:09:42.052Z,21600
2017-09-02T13:10:43.542Z,16744
2017-09-02T13:11:44.933Z,16380
2017-09-02T13:12:46.434Z,16208
2017-09-02T13:13:47.812Z,16004
2017-09-02T13:14:49.303Z,15896
2017-09-02T13:15:50.685Z,16256
2017-09-02T13:16:52.189Z,16996
2017-09-02T13:17:53.568Z,18088
2017-09-02T13:18:55.476Z,61728
2017-09-02T13:19:56.864Z,60896
2017-09-02T13:20:58.361Z,61696
2017-09-02T13:21:59.770Z,64832
2017-09-02T13:23:01.241Z,67840
2017-09-02T13:24:02.640Z,73312
2017-09-02T13:25:04.125Z,78304
2017-09-02T13:26:05.532Z,86720
2017-09-02T13:27:06.919Z,89696
2017-09-02T13:28:08.304Z,93312
2017-09-02T13:29:09.783Z,96992
2017-09-02T13:30:11.173Z,89312
2017-09-02T13:31:12.667Z,83168
2017-09-02T13:32:14.059Z,81504
2017-09-02T13:33:15.550Z,87008
2017-09-02T13:34:16.937Z,92288
2017-09-02T13:35:18.430Z,92032
2017-09-02T13:36:19.860Z,87392
2017-09-02T13:37:21.313Z,87552
2017-09-02T13:38:22.706Z,84448
2017-09-02T13:39:24.195Z,82080
2017-09-02T13:40:25.582Z,74752
2017-09-02T13:41:27.079Z,66368
2017-09-02T13:42:28.463Z,67072
2017-09-02T13:43:29.959Z,62944
2017-09-02T13:44:31.358Z,60864
2017-09-02T13:45:33.760Z,60000
2017-09-02T13:46:35.153Z,57504
2017-09-02T13:47:36.747Z,55712
2017-09-02T13:48:38.142Z,53920